Time;durP1;ratioP1;P1;durP2;ratioP2;P2;SDS_P1;SDS_P2;PMS_P1;PMS_P2;Temp;Humidity;BMP_temperature;BMP_pressure;BME280_temperature;BME280_humidity;BME280_pressure;Samples;Min_cycle;Max_cycle;Signal;HPM_P1;HPM_P2
2021/10/03 00:00:12;;;;;;;;;;;20.20;90.70;20.30;98749.00;;;;338923;28;92036;-93
2021/10/03 00:00:24;;;;;;;;;;;20.10;90.70;20.30;98743.00;;;;339341;28;82641;-93
2021/10/03 00:00:36;;;;;;;;;;;20.20;90.70;20.30;98738.00;;;;337666;28;90262;-93
2021/10/03 00:00:48;;;;;;;;;;;20.20;90.70;20.30;98741.00;;;;338614;28;82579;-92
2021/10/03 00:01:01;;;;;;;;;;;20.20;90.70;20.30;98743.00;;;;337694;28;90987;-93
2021/10/03 00:01:13;;;;;;;;;;;20.20;90.70;20.30;98745.00;;;;339442;28;82528;-93
2021/10/03 00:01:25;;;;;;;;;;;20.10;90.70;20.30;98747.00;;;;337578;28;92076;-93
2021/10/03 00:01:37;;;;;;;;;;;20.20;90.70;20.30;98755.00;;;;339545;28;83343;-94
2021/10/03 00:01:49;;;;;;;;;;;20.20;90.80;20.30;98749.00;;;;337012;28;90867;-94
2021/10/03 00:02:02;;;;;;;;;;;20.20;90.70;20.30;98740.00;;;;339343;28;83219;-94
2021/10/03 00:02:14;;;;;;;;;;;20.20;90.70;20.30;98748.00;;;;340234;28;92596;-94
2021/10/03 00:02:29;;;;;;;;;;;20.20;90.70;20.30;98742.00;;;;340074;28;83550;-94
2021/10/03 00:02:42;;;;;;;;;;;20.20;90.80;20.30;98758.00;;;;338721;28;90909;-93
2021/10/03 00:02:54;;;;;;;;;;;20.20;90.80;20.30;98738.00;;;;338006;28;83567;-94
2021/10/03 00:03:09;;;;;;;;;;;20.20;90.80;20.30;98769.00;;;;340399;28;90160;-94
2021/10/03 00:03:22;;;;;;;;;;;20.20;90.80;20.30;98763.00;;;;339432;28;83399;-93
2021/10/03 00:03:35;;;;;;;;;;;20.20;90.80;20.30;98762.00;;;;337820;28;90204;-94
2021/10/03 00:03:49;;;;;;;;;;;20.20;90.80;20.30;98751.00;;;;339297;28;82540;-94
2021/10/03 00:04:01;;;;;;;;;;;20.10;90.80;20.30;98763.00;;;;337773;28;91511;-94
2021/10/03 00:04:13;;;;;;;;;;;20.20;90.80;20.30;98748.00;;;;339275;28;83506;-93
2021/10/03 00:04:29;;;;;;;;;;;20.20;90.80;20.30;98764.00;;;;338715;28;91483;-94
2021/10/03 00:04:42;;;;;;;;;;;20.20;90.80;20.30;98760.00;;;;339231;28;83459;-94
2021/10/03 00:04:54;;;;;;;;;;;20.20;90.80;20.30;98764.00;;;;338916;28;91354;-94
2021/10/03 00:05:06;;;;;;;;;;;20.20;90.80;20.30;98771.00;;;;342216;28;82515;-94
2021/10/03 00:05:19;;;;;;;;;;;20.20;90.80;20.30;98748.00;;;;338945;28;89504;-94
2021/10/03 00:05:30;;;;;;;;;;;20.20;90.80;20.30;98734.00;;;;338021;28;83294;-93
2021/10/03 00:05:42;;;;;;;;;;;20.20;90.70;20.30;98752.00;;;;340371;28;91369;-95
2021/10/03 00:05:55;;;;;;;;;;;20.20;90.70;20.30;98751.00;;;;339511;28;83502;-94
2021/10/03 00:06:08;;;;;;;;;;;20.20;90.80;20.30;98751.00;;;;338858;28;89344;-95
2021/10/03 00:06:20;;;;;;;;;;;20.20;90.80;20.30;98759.00;;;;339344;28;82534;-95
2021/10/03 00:06:32;;;;;;;;;;;20.20;90.80;20.30;98745.00;;;;339035;28;91730;-95
2021/10/03 00:06:43;;;;;;;;;;;20.20;90.80;20.30;98757.00;;;;339019;28;83180;-94
2021/10/03 00:06:55;;;;;;;;;;;20.20;90.70;20.40;98771.00;;;;336339;28;91369;-95
2021/10/03 00:07:08;;;;;;;;;;;20.20;90.70;20.30;98757.00;;;;339503;28;83347;-94
2021/10/03 00:07:20;;;;;;;;;;;20.20;90.80;20.30;98769.00;;;;339048;28;90299;-94
2021/10/03 00:07:32;;;;;;;;;;;20.20;90.80;20.30;98762.00;;;;338152;28;82462;-93
2021/10/03 00:07:48;;;;;;;;;;;20.20;90.80;20.30;98751.00;;;;337779;28;89874;-95
2021/10/03 00:08:00;;;;;;;;;;;20.20;90.80;20.30;98758.00;;;;338000;28;82534;-94
2021/10/03 00:08:12;;;;;;;;;;;20.20;90.80;20.30;98765.00;;;;339481;28;91945;-94
2021/10/03 00:08:24;;;;;;;;;;;20.20;90.80;20.30;98736.00;;;;339393;28;83578;-94
2021/10/03 00:08:36;;;;;;;;;;;20.20;90.80;20.30;98753.00;;;;338843;28;91449;-95
2021/10/03 00:08:50;;;;;;;;;;;20.20;90.80;20.30;98756.00;;;;338130;28;83394;-93
2021/10/03 00:09:02;;;;;;;;;;;20.20;90.80;20.30;98775.00;;;;338935;28;91522;-95
2021/10/03 00:09:14;;;;;;;;;;;20.20;90.80;20.30;98760.00;;;;339445;28;83464;-94
2021/10/03 00:09:26;;;;;;;;;;;20.20;90.80;20.30;98770.00;;;;338937;28;91829;-94
2021/10/03 00:09:37;;;;;;;;;;;20.20;90.80;20.30;98754.00;;;;338213;28;82451;-94
2021/10/03 00:09:52;;;;;;;;;;;20.20;90.80;20.30;98755.00;;;;337711;28;91359;-94
2021/10/03 00:10:04;;;;;;;;;;;20.20;90.80;20.30;98753.00;;;;338065;28;82566;-95
2021/10/03 00:10:18;;;;;;;;;;;20.20;90.80;20.30;98735.00;;;;337654;28;91429;-94
2021/10/03 00:10:30;;;;;;;;;;;20.20;90.80;20.30;98740.00;;;;340840;28;83361;-94
2021/10/03 00:10:42;;;;;;;;;;;20.20;90.70;20.30;98742.00;;;;337702;28;91154;-95
2021/10/03 00:10:54;;;;;;;;;;;20.20;90.70;20.30;98750.00;;;;339546;28;83376;-94
2021/10/03 00:11:07;;;;;;;;;;;20.20;90.70;20.30;98745.00;;;;338014;28;91758;-94
2021/10/03 00:11:19;;;;;;;;;;;20.20;90.70;20.30;98745.00;;;;336707;28;83491;-95
2021/10/03 00:11:31;;;;;;;;;;;20.20;90.80;20.30;98736.00;;;;339159;28;91605;-94
2021/10/03 00:11:44;;;;;;;;;;;20.20;90.80;20.30;98743.00;;;;335549;29;83371;-95
2021/10/03 00:11:56;;;;;;;;;;;20.20;90.80;20.30;98737.00;;;;337883;28;90803;-95
2021/10/03 00:12:08;;;;;;;;;;;20.20;90.70;20.30;98739.00;;;;340347;28;83512;-94
2021/10/03 00:12:20;;;;;;;;;;;20.20;90.70;20.30;98736.00;;;;337693;28;91389;-94
2021/10/03 00:12:32;;;;;;;;;;;20.20;90.80;20.30;98735.00;;;;339538;28;83338;-94
2021/10/03 00:12:44;;;;;;;;;;;20.20;90.80;20.30;98752.00;;;;338839;28;92623;-95
2021/10/03 00:13:02;;;;;;;;;;;20.20;90.80;20.40;98731.00;;;;338163;28;82507;-95
2021/10/03 00:13:15;;;;;;;;;;;20.20;90.80;20.30;98746.00;;;;335093;29;90366;-95
2021/10/03 00:13:27;;;;;;;;;;;20.20;90.80;20.30;98731.00;;;;339099;28;83618;-94
2021/10/03 00:13:38;;;;;;;;;;;20.20;90.80;20.30;98740.00;;;;339359;28;90370;-95
2021/10/03 00:13:51;;;;;;;;;;;20.20;90.70;20.30;98735.00;;;;339550;28;82577;-95
2021/10/03 00:14:03;;;;;;;;;;;20.10;90.70;20.30;98729.00;;;;340215;28;90232;-94
2021/10/03 00:14:16;;;;;;;;;;;20.20;90.80;20.40;98733.00;;;;337608;28;83481;-94
2021/10/03 00:14:28;;;;;;;;;;;20.20;90.80;20.30;98733.00;;;;336540;28;87942;-95
2021/10/03 00:14:40;;;;;;;;;;;20.20;90.90;20.30;98720.00;;;;339235;28;82642;-94
2021/10/03 00:14:51;;;;;;;;;;;20.20;90.90;20.30;98735.00;;;;338979;28;91645;-94
2021/10/03 00:15:05;;;;;;;;;;;20.20;90.90;20.30;98726.00;;;;339252;28;82599;-94
2021/10/03 00:15:18;;;;;;;;;;;20.20;90.90;20.30;98724.00;;;;338245;28;90533;-95
2021/10/03 00:15:34;;;;;;;;;;;20.20;90.90;20.30;98729.00;;;;335567;29;82485;-96
2021/10/03 00:15:46;;;;;;;;;;;20.20;90.80;20.30;98723.00;;;;338884;28;89721;-95
2021/10/03 00:15:58;;;;;;;;;;;20.20;90.90;20.30;98725.00;;;;340823;28;82517;-95
2021/10/03 00:16:10;;;;;;;;;;;20.10;90.80;20.30;98732.00;;;;338494;28;90615;-95
2021/10/03 00:16:21;;;;;;;;;;;20.20;90.90;20.30;98722.00;;;;336704;28;83371;-94
2021/10/03 00:16:33;;;;;;;;;;;20.20;90.90;20.30;98725.00;;;;337707;28;91264;-95
2021/10/03 00:16:46;;;;;;;;;;;20.20;90.90;20.30;98732.00;;;;339384;28;83439;-95
2021/10/03 00:16:58;;;;;;;;;;;20.20;90.90;20.30;98726.00;;;;340203;28;91576;-95
2021/10/03 00:17:10;;;;;;;;;;;20.20;90.90;20.30;98725.00;;;;339339;28;82703;-94
2021/10/03 00:17:22;;;;;;;;;;;20.10;90.80;20.30;98722.00;;;;336318;28;90565;-95
2021/10/03 00:17:35;;;;;;;;;;;20.20;90.90;20.30;98724.00;;;;336862;28;83418;-95
2021/10/03 00:17:48;;;;;;;;;;;20.20;90.90;20.30;98732.00;;;;337691;28;91684;-95
2021/10/03 00:18:00;;;;;;;;;;;20.20;90.90;20.30;98710.00;;;;337971;28;83509;-95
2021/10/03 00:18:12;;;;;;;;;;;20.20;90.90;20.30;98716.00;;;;337883;28;90410;-95
2021/10/03 00:18:24;;;;;;;;;;;20.20;90.90;20.30;98723.00;;;;336778;28;83211;-94
2021/10/03 00:18:36;;;;;;;;;;;20.20;90.90;20.30;98723.00;;;;338781;28;90576;-95
2021/10/03 00:18:48;;;;;;;;;;;20.20;90.90;20.30;98722.00;;;;337999;28;83505;-95
2021/10/03 00:19:20;;;;;;;;;;;20.20;90.90;20.30;98719.00;;;;334701;29;91436;-95
2021/10/03 00:19:32;;;;;;;;;;;20.20;90.90;20.30;98728.00;;;;338099;28;82560;-95
2021/10/03 00:19:44;;;;;;;;;;;20.20;90.90;20.30;98730.00;;;;337709;28;91902;-95
2021/10/03 00:19:55;;;;;;;;;;;20.20;90.90;20.30;98728.00;;;;339544;28;83415;-95
2021/10/03 00:20:08;;;;;;;;;;;20.20;90.90;20.30;98723.00;;;;340252;28;90945;-95
2021/10/03 00:20:20;;;;;;;;;;;20.20;90.90;20.30;98728.00;;;;339219;28;83620;-95
2021/10/03 00:20:32;;;;;;;;;;;20.20;90.90;20.30;98716.00;;;;336472;28;91034;-95
2021/10/03 00:20:43;;;;;;;;;;;20.20;90.90;20.30;98714.00;;;;337120;28;82582;-96
2021/10/03 00:20:55;;;;;;;;;;;20.20;90.90;20.30;98725.00;;;;339145;28;87787;-95
2021/10/03 00:21:10;;;;;;;;;;;20.20;90.90;20.30;98728.00;;;;338129;28;82286;-95
2021/10/03 00:21:22;;;;;;;;;;;20.20;90.90;20.30;98723.00;;;;338879;28;91159;-95
2021/10/03 00:21:34;;;;;;;;;;;20.20;90.90;20.40;98739.00;;;;336756;28;82572;-95
2021/10/03 00:21:46;;;;;;;;;;;20.20;90.90;20.30;98725.00;;;;338626;28;90515;-95
2021/10/03 00:21:58;;;;;;;;;;;20.20;90.90;20.30;98730.00;;;;338109;28;83415;-95
2021/10/03 00:22:10;;;;;;;;;;;20.20;90.90;20.30;98734.00;;;;338989;28;90240;-96
2021/10/03 00:22:22;;;;;;;;;;;20.20;90.80;20.30;98721.00;;;;339244;28;82496;-95
2021/10/03 00:22:34;;;;;;;;;;;20.20;90.70;20.30;98706.00;;;;336363;28;90997;-95
2021/10/03 00:22:46;;;;;;;;;;;20.20;90.80;20.30;98713.00;;;;340748;28;82362;-95
2021/10/03 00:22:58;;;;;;;;;;;20.20;90.80;20.30;98724.00;;;;337651;28;90759;-95
2021/10/03 00:23:10;;;;;;;;;;;20.20;90.80;20.30;98734.00;;;;336843;28;82567;-95
2021/10/03 00:23:22;;;;;;;;;;;20.20;90.80;20.30;98732.00;;;;337084;28;90582;-95
2021/10/03 00:23:34;;;;;;;;;;;20.20;90.80;20.30;98730.00;;;;338062;28;82619;-95
2021/10/03 00:23:46;;;;;;;;;;;20.20;90.80;20.30;98725.00;;;;338717;28;90641;-95
2021/10/03 00:23:58;;;;;;;;;;;20.20;90.80;20.30;98733.00;;;;340719;28;82497;-95
2021/10/03 00:24:10;;;;;;;;;;;20.20;90.80;20.30;98737.00;;;;337725;28;91254;-95
2021/10/03 00:24:22;;;;;;;;;;;20.20;90.80;20.40;98713.00;;;;339455;28;83423;-95
2021/10/03 00:24:34;;;;;;;;;;;20.20;90.90;20.30;98717.00;;;;337672;28;90936;-95
2021/10/03 00:24:45;;;;;;;;;;;20.20;90.90;20.30;98717.00;;;;340842;28;82422;-95
2021/10/03 00:24:57;;;;;;;;;;;20.20;90.90;20.30;98719.00;;;;340387;28;90862;-96
2021/10/03 00:25:10;;;;;;;;;;;20.20;90.80;20.30;98722.00;;;;338169;28;83306;-95
2021/10/03 00:25:25;;;;;;;;;;;20.20;90.90;20.40;98729.00;;;;338943;28;88929;-95
2021/10/03 00:25:37;;;;;;;;;;;20.20;90.90;20.30;98731.00;;;;339360;28;83379;-95
2021/10/03 00:25:49;;;;;;;;;;;20.20;90.90;20.30;98739.00;;;;336446;28;91411;-95
2021/10/03 00:26:01;;;;;;;;;;;20.20;90.90;20.30;98733.00;;;;338041;28;83414;-95
2021/10/03 00:26:13;;;;;;;;;;;20.20;91.00;20.40;98745.00;;;;337556;28;90558;-96
2021/10/03 00:26:25;;;;;;;;;;;20.20;91.00;20.30;98736.00;;;;338015;28;82433;-95
2021/10/03 00:26:36;;;;;;;;;;;20.20;91.00;20.40;98710.00;;;;336288;28;89532;-95
2021/10/03 00:26:48;;;;;;;;;;;20.20;90.90;20.30;98719.00;;;;339170;28;82567;-95
2021/10/03 00:27:00;;;;;;;;;;;20.20;90.90;20.40;98728.00;;;;337698;28;89161;-95
2021/10/03 00:27:12;;;;;;;;;;;20.20;90.90;20.30;98732.00;;;;338288;28;82645;-95
2021/10/03 00:27:24;;;;;;;;;;;20.20;90.90;20.40;98727.00;;;;336082;28;90410;-95
2021/10/03 00:27:36;;;;;;;;;;;20.20;91.00;20.40;98732.00;;;;336818;28;82424;-95
2021/10/03 00:27:48;;;;;;;;;;;20.20;91.00;20.30;98724.00;;;;337759;28;90304;-96
2021/10/03 00:28:00;;;;;;;;;;;20.20;90.90;20.30;98714.00;;;;338065;28;83343;-95
2021/10/03 00:28:12;;;;;;;;;;;20.20;90.90;20.30;98737.00;;;;339128;28;89753;-95
2021/10/03 00:28:23;;;;;;;;;;;20.20;90.90;20.30;98747.00;;;;335471;28;83460;-96
2021/10/03 00:28:36;;;;;;;;;;;20.20;90.90;20.30;98719.00;;;;337222;28;90079;-95
2021/10/03 00:28:48;;;;;;;;;;;20.20;90.90;20.30;98721.00;;;;340774;28;82579;-95
2021/10/03 00:29:00;;;;;;;;;;;20.20;90.90;20.30;98729.00;;;;338852;28;89403;-96
2021/10/03 00:29:12;;;;;;;;;;;20.20;90.90;20.40;98722.00;;;;339298;28;83471;-96
2021/10/03 00:29:24;;;;;;;;;;;20.20;90.90;20.30;98735.00;;;;338866;28;91249;-95
2021/10/03 00:29:36;;;;;;;;;;;20.20;90.90;20.40;98736.00;;;;339077;28;83574;-96
2021/10/03 00:29:48;;;;;;;;;;;20.20;90.80;20.40;98730.00;;;;338480;28;89677;-96
2021/10/03 00:29:59;;;;;;;;;;;20.20;90.80;20.40;98730.00;;;;336684;28;82532;-96
2021/10/03 00:30:16;;;;;;;;;;;20.20;90.90;20.30;98711.00;;;;339555;28;90928;-95
2021/10/03 00:30:28;;;;;;;;;;;20.20;90.90;20.40;98737.00;;;;338611;28;83473;-95
2021/10/03 00:30:41;;;;;;;;;;;20.20;90.90;20.40;98737.00;;;;338072;28;90112;-96
2021/10/03 00:30:53;;;;;;;;;;;20.20;90.80;20.30;98728.00;;;;337065;28;82671;-95
2021/10/03 00:31:06;;;;;;;;;;;20.20;90.90;20.40;98728.00;;;;339152;28;90037;-96
2021/10/03 00:31:18;;;;;;;;;;;20.20;90.90;20.40;98731.00;;;;338412;28;82523;-96
2021/10/03 00:31:30;;;;;;;;;;;20.20;90.90;20.30;98744.00;;;;338763;28;90211;-96
2021/10/03 00:31:42;;;;;;;;;;;20.20;90.90;20.30;98728.00;;;;337002;28;82471;-96
2021/10/03 00:31:54;;;;;;;;;;;20.20;90.80;20.30;98732.00;;;;337664;28;90633;-95
2021/10/03 00:32:06;;;;;;;;;;;20.20;90.90;20.30;98738.00;;;;339369;28;82634;-96
2021/10/03 00:32:18;;;;;;;;;;;20.20;90.90;20.30;98740.00;;;;337478;28;91679;-96
2021/10/03 00:32:30;;;;;;;;;;;20.20;90.90;20.30;98735.00;;;;339447;28;82504;-96
2021/10/03 00:32:42;;;;;;;;;;;20.20;90.80;20.30;98750.00;;;;338835;28;90402;-95
2021/10/03 00:32:54;;;;;;;;;;;20.20;90.90;20.30;98731.00;;;;338347;28;82501;-96
2021/10/03 00:33:06;;;;;;;;;;;20.20;90.90;20.30;98734.00;;;;337905;28;87279;-95
2021/10/03 00:33:17;;;;;;;;;;;20.20;90.80;20.40;98730.00;;;;335957;28;82602;-96
2021/10/03 00:33:29;;;;;;;;;;;20.20;90.90;20.40;98733.00;;;;337769;28;90516;-96
2021/10/03 00:33:41;;;;;;;;;;;20.20;90.90;20.40;98731.00;;;;340279;28;82570;-96
2021/10/03 00:33:54;;;;;;;;;;;20.20;90.90;20.40;98733.00;;;;337832;28;90579;-95
2021/10/03 00:34:06;;;;;;;;;;;20.20;90.90;20.40;98732.00;;;;339467;28;82591;-96
2021/10/03 00:34:18;;;;;;;;;;;20.20;90.90;20.40;98728.00;;;;336429;28;90584;-96
2021/10/03 00:34:30;;;;;;;;;;;20.20;90.90;20.40;98728.00;;;;339267;28;82531;-96
2021/10/03 00:34:42;;;;;;;;;;;20.20;91.10;20.30;98735.00;;;;338311;28;90069;-96
2021/10/03 00:34:53;;;;;;;;;;;20.20;90.90;20.40;98722.00;;;;340889;28;83327;-96
2021/10/03 00:35:06;;;;;;;;;;;20.20;90.90;20.40;98737.00;;;;338851;28;90777;-96
2021/10/03 00:35:18;;;;;;;;;;;20.20;90.90;20.30;98723.00;;;;338282;28;82465;-96
2021/10/03 00:35:30;;;;;;;;;;;20.20;90.90;20.30;98725.00;;;;337778;28;91964;-96
2021/10/03 00:35:42;;;;;;;;;;;20.20;90.90;20.30;98733.00;;;;339356;28;82500;-96
2021/10/03 00:35:54;;;;;;;;;;;20.20;90.70;20.30;98736.00;;;;338863;28;89583;-96
2021/10/03 00:36:05;;;;;;;;;;;20.20;90.70;20.30;98727.00;;;;339408;28;82559;-96
2021/10/03 00:36:17;;;;;;;;;;;20.20;90.70;20.30;98725.00;;;;339473;28;90598;-95
2021/10/03 00:36:29;;;;;;;;;;;20.20;90.80;20.30;98732.00;;;;339322;28;82594;-96
2021/10/03 00:36:41;;;;;;;;;;;20.20;90.80;20.30;98738.00;;;;338819;28;89633;-96
2021/10/03 00:36:53;;;;;;;;;;;20.20;90.80;20.30;98742.00;;;;335431;29;83440;-96
2021/10/03 00:37:05;;;;;;;;;;;20.20;90.80;20.30;98742.00;;;;337995;28;89656;-96
2021/10/03 00:37:16;;;;;;;;;;;20.20;90.90;20.30;98734.00;;;;339266;28;82539;-96
2021/10/03 00:37:28;;;;;;;;;;;20.20;90.90;20.30;98731.00;;;;334936;28;90302;-96
2021/10/03 00:37:40;;;;;;;;;;;20.20;90.90;20.30;98733.00;;;;336853;28;82491;-96
2021/10/03 00:37:52;;;;;;;;;;;20.20;90.80;20.30;98736.00;;;;339046;28;90324;-96
2021/10/03 00:38:04;;;;;;;;;;;20.20;90.90;20.30;98736.00;;;;336738;28;82541;-96
2021/10/03 00:38:17;;;;;;;;;;;20.20;90.90;20.30;98739.00;;;;339037;28;89660;-96
2021/10/03 00:38:29;;;;;;;;;;;20.10;90.80;20.30;98728.00;;;;336848;28;82536;-96
2021/10/03 00:38:41;;;;;;;;;;;20.10;90.90;20.30;98733.00;;;;337789;28;90246;-96
2021/10/03 00:38:53;;;;;;;;;;;20.10;90.90;20.30;98727.00;;;;338707;28;82561;-95
2021/10/03 00:39:05;;;;;;;;;;;20.10;90.90;20.40;98733.00;;;;337958;28;90727;-96
2021/10/03 00:39:17;;;;;;;;;;;20.20;90.90;20.30;98736.00;;;;338092;28;83287;-95
2021/10/03 00:39:28;;;;;;;;;;;20.10;90.80;20.30;98747.00;;;;340256;28;91490;-95
2021/10/03 00:39:40;;;;;;;;;;;20.20;90.90;20.20;98738.00;;;;339514;28;82513;-96
2021/10/03 00:39:52;;;;;;;;;;;20.10;90.80;20.20;98743.00;;;;335729;28;90860;-95
2021/10/03 00:40:04;;;;;;;;;;;20.10;90.80;20.30;98738.00;;;;338102;28;82654;-96
2021/10/03 00:40:16;;;;;;;;;;;20.20;90.90;20.30;98735.00;;;;339128;28;90174;-94
2021/10/03 00:40:29;;;;;;;;;;;20.10;90.90;20.30;98731.00;;;;339340;28;82755;-94
2021/10/03 00:40:41;;;;;;;;;;;20.20;90.90;20.30;98739.00;;;;337649;28;91289;-95
2021/10/03 00:40:53;;;;;;;;;;;20.10;90.90;20.20;98732.00;;;;339208;28;82555;-95
2021/10/03 00:41:05;;;;;;;;;;;20.20;90.90;20.30;98732.00;;;;337586;28;89406;-95
2021/10/03 00:41:16;;;;;;;;;;;20.10;90.90;20.30;98734.00;;;;339446;28;82553;-94
2021/10/03 00:41:28;;;;;;;;;;;20.20;91.00;20.30;98744.00;;;;340210;28;92361;-94
2021/10/03 00:41:40;;;;;;;;;;;20.20;90.90;20.30;98730.00;;;;339207;28;82424;-94
2021/10/03 00:41:52;;;;;;;;;;;20.10;90.80;20.30;98723.00;;;;337458;28;91514;-95
2021/10/03 00:42:04;;;;;;;;;;;20.10;90.60;20.30;98736.00;;;;339336;28;82587;-95
2021/10/03 00:42:16;;;;;;;;;;;20.20;90.50;20.30;98733.00;;;;338816;28;91367;-94
2021/10/03 00:42:27;;;;;;;;;;;20.20;90.50;20.30;98745.00;;;;338124;28;82474;-94
2021/10/03 00:42:39;;;;;;;;;;;20.20;90.50;20.30;98737.00;;;;336377;28;91219;-94
2021/10/03 00:42:51;;;;;;;;;;;20.20;90.50;20.30;98735.00;;;;335507;29;82569;-93
2021/10/03 00:43:04;;;;;;;;;;;20.20;90.50;20.30;98731.00;;;;336433;28;90208;-94
2021/10/03 00:43:15;;;;;;;;;;;20.20;90.50;20.30;98732.00;;;;339422;28;83430;-95
2021/10/03 00:43:27;;;;;;;;;;;20.10;90.50;20.30;98733.00;;;;338920;28;90907;-94
2021/10/03 00:43:40;;;;;;;;;;;20.20;90.50;20.30;98740.00;;;;339395;28;82527;-94
2021/10/03 00:43:52;;;;;;;;;;;20.20;90.60;20.30;98760.00;;;;337774;28;90259;-95
2021/10/03 00:44:04;;;;;;;;;;;20.20;90.60;20.30;98760.00;;;;339268;28;82476;-94
2021/10/03 00:44:17;;;;;;;;;;;20.20;90.60;20.20;98727.00;;;;337598;28;90706;-94
2021/10/03 00:44:29;;;;;;;;;;;20.20;90.60;20.30;98714.00;;;;339528;28;82504;-94
2021/10/03 00:44:40;;;;;;;;;;;20.20;90.60;20.30;98724.00;;;;336195;28;90267;-94
2021/10/03 00:44:53;;;;;;;;;;;20.20;90.70;20.30;98725.00;;;;338635;28;82542;-95
2021/10/03 00:45:06;;;;;;;;;;;20.10;90.60;20.30;98722.00;;;;337597;28;90806;-95
2021/10/03 00:45:18;;;;;;;;;;;20.20;90.70;20.30;98726.00;;;;336660;28;83451;-95
2021/10/03 00:45:30;;;;;;;;;;;20.20;90.70;20.30;98748.00;;;;338895;28;91546;-94
2021/10/03 00:45:43;;;;;;;;;;;20.10;90.60;20.40;98743.00;;;;340447;28;85356;-94
2021/10/03 00:45:55;;;;;;;;;;;20.20;90.70;20.30;98734.00;;;;336462;28;91374;-95
2021/10/03 00:46:06;;;;;;;;;;;20.10;90.50;20.20;98725.00;;;;341968;28;83450;-94
2021/10/03 00:46:19;;;;;;;;;;;20.10;90.60;20.20;98728.00;;;;340315;28;89947;-95
2021/10/03 00:46:30;;;;;;;;;;;20.10;90.60;20.20;98725.00;;;;336776;28;83405;-94
2021/10/03 00:46:42;;;;;;;;;;;20.20;90.60;20.30;98744.00;;;;338798;28;90649;-95
2021/10/03 00:46:54;;;;;;;;;;;20.10;90.50;20.20;98738.00;;;;342073;28;83476;-94
2021/10/03 00:47:06;;;;;;;;;;;20.20;90.60;20.20;98729.00;;;;340286;28;90324;-95
2021/10/03 00:47:18;;;;;;;;;;;20.10;90.60;20.30;98742.00;;;;340701;28;83524;-94
2021/10/03 00:47:30;;;;;;;;;;;20.10;90.60;20.20;98739.00;;;;340154;28;91285;-94
2021/10/03 00:47:42;;;;;;;;;;;20.10;90.60;20.20;98734.00;;;;341958;28;82427;-95
2021/10/03 00:47:53;;;;;;;;;;;20.10;90.50;20.30;98731.00;;;;343113;28;91251;-94
2021/10/03 00:48:06;;;;;;;;;;;20.10;90.60;20.30;98752.00;;;;340579;28;82537;-95
2021/10/03 00:48:18;;;;;;;;;;;20.10;90.60;20.30;98735.00;;;;340278;28;90586;-95
2021/10/03 00:48:30;;;;;;;;;;;20.10;90.60;20.20;98728.00;;;;342056;28;83366;-95
2021/10/03 00:48:41;;;;;;;;;;;20.10;90.60;20.20;98723.00;;;;338983;28;91116;-93
2021/10/03 00:48:53;;;;;;;;;;;20.10;90.60;20.20;98727.00;;;;338122;28;83374;-94
2021/10/03 00:49:05;;;;;;;;;;;20.10;90.60;20.30;98722.00;;;;341414;28;91239;-94
2021/10/03 00:49:17;;;;;;;;;;;20.10;90.60;20.30;98731.00;;;;340738;28;83433;-95
2021/10/03 00:49:33;;;;;;;;;;;20.10;90.70;20.30;98727.00;;;;339025;28;91775;-94
2021/10/03 00:49:45;;;;;;;;;;;20.10;90.60;20.30;98734.00;;;;342220;28;83358;-94
2021/10/03 00:49:57;;;;;;;;;;;20.10;90.60;20.30;98730.00;;;;338708;28;90520;-94
2021/10/03 00:50:10;;;;;;;;;;;20.10;90.60;20.30;98716.00;;;;340587;28;83448;-95
2021/10/03 00:50:21;;;;;;;;;;;20.10;90.50;20.30;98730.00;;;;336410;28;91381;-96
2021/10/03 00:50:33;;;;;;;;;;;20.10;90.40;20.30;98717.00;;;;338249;28;82526;-96
2021/10/03 00:50:46;;;;;;;;;;;20.10;90.50;20.30;98744.00;;;;337640;28;90566;-95
2021/10/03 00:50:58;;;;;;;;;;;20.10;90.50;20.30;98733.00;;;;338102;28;82404;-95
2021/10/03 00:51:09;;;;;;;;;;;20.10;90.40;20.30;98728.00;;;;339055;28;90146;-95
2021/10/03 00:51:21;;;;;;;;;;;20.10;90.50;20.30;98730.00;;;;335321;28;83502;-94
2021/10/03 00:51:33;;;;;;;;;;;20.10;90.50;20.30;98738.00;;;;336693;28;91657;-94
2021/10/03 00:51:45;;;;;;;;;;;20.10;90.40;20.30;98730.00;;;;340524;28;83549;-95
2021/10/03 00:51:57;;;;;;;;;;;20.10;90.40;20.30;98742.00;;;;337590;28;91926;-94
2021/10/03 00:52:09;;;;;;;;;;;20.10;90.40;20.30;98742.00;;;;339359;28;83463;-95
2021/10/03 00:52:21;;;;;;;;;;;20.20;90.50;20.30;98744.00;;;;337762;28;89781;-96
2021/10/03 00:52:32;;;;;;;;;;;20.20;90.40;20.30;98718.00;;;;336742;28;83362;-95
2021/10/03 00:52:45;;;;;;;;;;;20.20;90.40;20.30;98738.00;;;;340353;28;91520;-94
2021/10/03 00:52:57;;;;;;;;;;;20.20;90.50;20.30;98728.00;;;;340739;28;83400;-95
2021/10/03 00:53:10;;;;;;;;;;;20.10;90.50;20.30;98733.00;;;;339013;28;91817;-93
2021/10/03 00:53:22;;;;;;;;;;;20.10;90.40;20.30;98722.00;;;;335484;29;82533;-94
2021/10/03 00:53:34;;;;;;;;;;;20.20;90.40;20.30;98720.00;;;;337419;28;91120;-95
2021/10/03 00:53:46;;;;;;;;;;;20.10;90.40;20.30;98745.00;;;;338122;28;83432;-94
2021/10/03 00:53:58;;;;;;;;;;;20.10;90.30;20.30;98721.00;;;;336014;28;91637;-94
2021/10/03 00:54:09;;;;;;;;;;;20.20;90.30;20.30;98730.00;;;;339291;28;83525;-95
2021/10/03 00:54:21;;;;;;;;;;;20.20;90.30;20.30;98734.00;;;;338524;28;88719;-94
2021/10/03 00:54:33;;;;;;;;;;;20.20;90.20;20.30;98720.00;;;;340788;28;82477;-95
2021/10/03 00:54:45;;;;;;;;;;;20.10;90.50;20.30;98731.00;;;;341693;28;91542;-94
2021/10/03 00:54:57;;;;;;;;;;;20.10;90.10;20.30;98728.00;;;;340762;28;82599;-95
2021/10/03 00:55:10;;;;;;;;;;;20.20;90.10;20.30;98746.00;;;;340369;28;90877;-93
2021/10/03 00:55:22;;;;;;;;;;;20.20;90.10;20.30;98734.00;;;;339360;28;83449;-95
2021/10/03 00:55:34;;;;;;;;;;;20.20;90.10;20.30;98725.00;;;;337786;28;90180;-93
2021/10/03 00:55:46;;;;;;;;;;;20.20;90.20;20.30;98730.00;;;;338178;28;82499;-95
2021/10/03 00:55:58;;;;;;;;;;;20.10;90.20;20.30;98737.00;;;;340325;28;91297;-94
2021/10/03 00:56:12;;;;;;;;;;;20.20;90.20;20.30;98731.00;;;;340735;28;82561;-94
2021/10/03 00:56:24;;;;;;;;;;;20.10;90.20;20.30;98735.00;;;;338022;28;92165;-94
2021/10/03 00:56:36;;;;;;;;;;;20.20;90.20;20.30;98727.00;;;;339294;28;82605;-94
2021/10/03 00:56:48;;;;;;;;;;;20.10;90.20;20.30;98728.00;;;;338662;28;90246;-95
2021/10/03 00:57:00;;;;;;;;;;;20.20;90.20;20.30;98729.00;;;;337871;28;83480;-93
2021/10/03 00:57:12;;;;;;;;;;;20.20;90.20;20.30;98733.00;;;;338869;28;89496;-93
2021/10/03 00:57:23;;;;;;;;;;;20.10;90.20;20.30;98732.00;;;;337869;28;83660;-94
2021/10/03 00:57:35;;;;;;;;;;;20.20;90.30;20.30;98730.00;;;;340127;28;90341;-94
2021/10/03 00:57:49;;;;;;;;;;;20.10;90.20;20.30;98726.00;;;;340206;28;83548;-95
2021/10/03 00:58:01;;;;;;;;;;;20.10;90.20;20.30;98735.00;;;;337467;28;91684;-95
2021/10/03 00:58:13;;;;;;;;;;;20.20;90.30;20.40;98732.00;;;;339467;28;82396;-94
2021/10/03 00:58:24;;;;;;;;;;;20.10;90.20;20.30;98736.00;;;;339778;28;89402;-94
2021/10/03 00:58:36;;;;;;;;;;;20.10;90.20;20.30;98726.00;;;;337981;28;83463;-94
2021/10/03 00:58:48;;;;;;;;;;;20.20;90.10;20.30;98722.00;;;;340085;28;90566;-95
2021/10/03 00:59:01;;;;;;;;;;;20.20;90.10;20.30;98730.00;;;;339279;28;82520;-95
2021/10/03 00:59:13;;;;;;;;;;;20.20;90.20;20.40;98732.00;;;;340371;28;91556;-95
2021/10/03 00:59:24;;;;;;;;;;;20.20;90.50;20.40;98732.00;;;;339313;28;83427;-95
2021/10/03 00:59:36;;;;;;;;;;;20.20;90.20;20.30;98724.00;;;;338973;28;91127;-95
2021/10/03 00:59:48;;;;;;;;;;;20.20;90.10;20.30;98729.00;;;;339428;28;83506;-96
2021/10/03 01:00:00;;;;;;;;;;;20.20;90.10;20.40;98733.00;;;;337686;28;91306;-95
2021/10/03 01:00:12;;;;;;;;;;;20.20;90.10;20.30;98717.00;;;;339462;28;82516;-96
2021/10/03 01:00:26;;;;;;;;;;;20.20;90.10;20.30;98721.00;;;;338979;28;91179;-95
2021/10/03 01:00:39;;;;;;;;;;;20.20;90.00;20.30;98721.00;;;;336728;28;83400;-94
2021/10/03 01:00:51;;;;;;;;;;;20.20;89.90;20.30;98728.00;;;;339057;28;90471;-95